Poquonock Bridge, Connecticut
Current Conditions -  °F | °C
As of 3:56 PM on Tuesday 25 Nov 2014 (Local Time) from KGON Reporting Station
Clear Clear  
Wind Chill: 52°   Ceiling: Unl
Heat Index: 52°   Visibility: 7mi
Dew Point: 40°   Wind: 10mph
Humidity: 63%   Direction: 240°WSW
Pressure: 29.97"   Gusts: NA
Location:  41.3595°N, 72.0439°W
Report Text: KGON 252056Z 24009KT 7SM CLR 11/04 A2997 RMK AO2 SLP147 T01110044 53009
Loading
Personal Weather Stations






























Interactive Weather Map New forecast layout! Learn more

10-Day Weather Forecast

Advertisements
Track Severe Weather on mobile